Time;durP1;ratioP1;P1;durP2;ratioP2;P2;SDS_P1;SDS_P2;PMS_P1;PMS_P2;Temp;Humidity;BMP_temperature;BMP_pressure;BME280_temperature;BME280_humidity;BME280_pressure;Samples;Min_cycle;Max_cycle;Signal;HPM_P1;HPM_P2
2023/12/11 00:01:16;;;;;;;7.68;2.67;;;11.70;99.90;;;;;;5028809;28;20076;-77
2023/12/11 00:03:43;;;;;;;7.68;1.98;;;11.70;99.90;;;;;;5021893;28;20111;-77
2023/12/11 00:06:10;;;;;;;6.97;2.67;;;11.70;99.90;;;;;;5019291;28;20563;-77
2023/12/11 00:08:38;;;;;;;10.68;2.85;;;11.70;99.90;;;;;;5020829;28;20156;-77
2023/12/11 00:11:05;;;;;;;8.23;2.30;;;11.70;99.90;;;;;;5038389;28;20064;-77
2023/12/11 00:13:32;;;;;;;10.25;3.80;;;11.60;99.90;;;;;;5026205;28;20052;-75
2023/12/11 00:15:59;;;;;;;11.80;3.42;;;11.60;99.90;;;;;;5030313;28;20071;-76
2023/12/11 00:18:27;;;;;;;7.90;2.55;;;11.40;99.90;;;;;;5035331;28;20056;-76
2023/12/11 00:20:55;;;;;;;8.05;2.08;;;11.20;99.90;;;;;;5019346;28;20203;-76
2023/12/11 00:23:22;;;;;;;6.25;2.10;;;11.10;99.90;;;;;;5001154;28;20439;-76
2023/12/11 00:25:49;;;;;;;7.20;2.53;;;11.00;99.90;;;;;;5001347;28;20401;-76
2023/12/11 00:28:17;;;;;;;9.38;2.83;;;10.90;99.90;;;;;;5025948;28;20060;-76
2023/12/11 00:30:44;;;;;;;8.07;2.67;;;10.80;99.90;;;;;;5019469;28;20053;-76
2023/12/11 00:33:11;;;;;;;7.88;2.30;;;10.90;99.90;;;;;;5018465;28;20459;-76
2023/12/11 00:35:38;;;;;;;8.63;2.35;;;10.80;99.90;;;;;;5018166;28;20125;-77
2023/12/11 00:38:05;;;;;;;8.20;2.80;;;10.80;99.90;;;;;;5020696;28;20396;-76
2023/12/11 00:40:32;;;;;;;6.60;2.15;;;10.80;99.90;;;;;;5037596;28;20052;-77
2023/12/11 00:42:59;;;;;;;9.43;3.08;;;10.80;99.90;;;;;;5023486;28;20449;-76
2023/12/11 00:45:26;;;;;;;7.72;2.17;;;10.90;99.90;;;;;;5032988;28;20051;-76
2023/12/11 00:47:53;;;;;;;6.95;2.55;;;10.90;99.90;;;;;;5010757;28;20454;-76
2023/12/11 00:50:20;;;;;;;6.78;2.17;;;10.90;99.90;;;;;;5016775;28;20513;-76
2023/12/11 00:52:47;;;;;;;8.10;2.40;;;11.00;99.90;;;;;;5022387;28;20695;-76
2023/12/11 00:55:14;;;;;;;6.85;3.08;;;11.00;99.90;;;;;;5000307;28;20057;-76
2023/12/11 00:57:41;;;;;;;7.60;2.47;;;11.00;99.90;;;;;;5010168;28;20048;-76
2023/12/11 01:00:09;;;;;;;8.77;2.53;;;11.10;99.90;;;;;;5003296;28;20155;-76
2023/12/11 01:02:36;;;;;;;6.75;2.35;;;11.10;99.90;;;;;;5018680;28;20536;-78
2023/12/11 01:05:03;;;;;;;6.20;2.13;;;11.20;99.90;;;;;;5019584;28;20056;-78
2023/12/11 01:07:30;;;;;;;5.15;1.92;;;11.20;99.90;;;;;;5009435;28;20724;-77
2023/12/11 01:09:57;;;;;;;7.95;2.25;;;11.20;99.90;;;;;;5005626;28;20049;-78
2023/12/11 01:12:24;;;;;;;8.50;2.60;;;11.20;99.90;;;;;;5019109;28;20238;-78
2023/12/11 01:14:51;;;;;;;7.20;1.90;;;11.20;99.90;;;;;;5019609;28;20053;-78
2023/12/11 01:17:18;;;;;;;6.50;2.25;;;11.20;99.90;;;;;;5020038;28;20056;-78
2023/12/11 01:20:05;;;;;;;6.65;2.28;;;11.20;99.90;;;;;;5038404;28;20409;-78
2023/12/11 01:22:33;;;;;;;5.43;1.90;;;11.30;99.90;;;;;;5034143;28;20136;-78
2023/12/11 01:25:02;;;;;;;6.05;2.33;;;11.40;99.90;;;;;;5019132;28;20095;-78
2023/12/11 01:27:29;;;;;;;9.00;2.10;;;11.30;99.90;;;;;;5004375;28;20162;-78
2023/12/11 01:29:57;;;;;;;7.93;2.00;;;11.30;99.90;;;;;;5019350;28;20135;-77
2023/12/11 01:32:24;;;;;;;6.97;2.50;;;11.30;99.90;;;;;;5029894;28;20041;-78
2023/12/11 01:34:51;;;;;;;7.15;1.90;;;11.30;99.90;;;;;;5019217;28;20053;-78
2023/12/11 01:37:19;;;;;;;6.53;2.25;;;11.40;99.90;;;;;;5019737;28;20118;-79
2023/12/11 01:39:46;;;;;;;8.55;2.53;;;11.30;99.90;;;;;;5039698;28;20052;-78
2023/12/11 01:42:13;;;;;;;8.70;2.15;;;11.30;99.90;;;;;;5018669;28;20363;-78
2023/12/11 01:44:41;;;;;;;7.07;2.28;;;11.30;99.90;;;;;;5017400;28;20137;-78
2023/12/11 01:47:08;;;;;;;8.63;2.22;;;11.30;99.90;;;;;;5002870;28;20057;-77
2023/12/11 01:49:36;;;;;;;5.82;1.73;;;11.30;99.90;;;;;;5018335;28;20495;-77
2023/12/11 01:52:03;;;;;;;9.88;2.63;;;11.30;99.90;;;;;;5003257;28;20128;-77
2023/12/11 01:54:31;;;;;;;6.07;1.95;;;11.30;99.90;;;;;;5018589;28;20115;-78
2023/12/11 01:56:58;;;;;;;7.07;2.10;;;11.30;99.90;;;;;;5023155;28;20314;-78
2023/12/11 01:59:25;;;;;;;7.35;1.92;;;11.30;99.90;;;;;;5021621;28;20136;-78
2023/12/11 02:01:51;;;;;;;5.50;2.33;;;11.30;99.90;;;;;;5032841;28;20514;-77
2023/12/11 02:04:19;;;;;;;6.80;1.77;;;11.30;99.90;;;;;;5027128;28;20270;-77
2023/12/11 02:06:46;;;;;;;7.38;2.78;;;11.30;99.90;;;;;;5020965;28;20065;-77
2023/12/11 02:09:13;;;;;;;7.20;2.20;;;11.30;99.90;;;;;;5038976;28;20053;-77
2023/12/11 02:11:40;;;;;;;7.80;2.10;;;11.30;99.90;;;;;;5033587;28;20049;-77
2023/12/11 02:14:09;;;;;;;3.78;1.30;;;11.30;99.90;;;;;;5026021;28;20049;-77
2023/12/11 02:16:36;;;;;;;4.10;2.13;;;11.30;99.90;;;;;;5019717;28;20376;-77
2023/12/11 02:19:03;;;;;;;7.40;2.15;;;11.40;99.90;;;;;;5019665;28;20049;-77
2023/12/11 02:21:30;;;;;;;7.65;1.85;;;11.40;99.90;;;;;;5029841;28;20053;-77
2023/12/11 02:24:38;;;;;;;5.72;2.45;;;11.40;99.90;;;;;;5014597;28;20045;-77
2023/12/11 02:27:05;;;;;;;6.03;2.13;;;11.30;99.90;;;;;;5018582;28;20045;-77
2023/12/11 02:29:32;;;;;;;4.82;2.00;;;11.30;99.90;;;;;;5013856;28;20045;-77
2023/12/11 02:31:59;;;;;;;6.10;1.85;;;11.30;99.90;;;;;;5005719;28;20442;-77
2023/12/11 02:34:27;;;;;;;6.13;1.83;;;11.30;99.90;;;;;;5016121;28;20061;-77
2023/12/11 02:36:54;;;;;;;7.28;2.03;;;11.20;99.90;;;;;;5021386;28;20214;-77
2023/12/11 02:39:21;;;;;;;8.40;2.13;;;11.20;99.90;;;;;;5021153;28;20049;-77
2023/12/11 02:41:48;;;;;;;7.55;1.83;;;11.10;99.90;;;;;;5041304;28;20535;-77
2023/12/11 02:44:14;;;;;;;6.88;2.03;;;11.10;99.90;;;;;;5022511;28;20134;-77
2023/12/11 02:46:41;;;;;;;6.25;2.00;;;11.00;99.90;;;;;;5032147;28;20084;-77
2023/12/11 02:49:08;;;;;;;6.30;1.92;;;11.10;99.90;;;;;;5012505;28;20725;-77
2023/12/11 02:51:35;;;;;;;9.43;1.92;;;11.00;99.90;;;;;;5024183;28;20140;-77
2023/12/11 02:54:02;;;;;;;6.93;2.20;;;11.00;99.90;;;;;;5021474;28;20056;-77
2023/12/11 02:56:29;;;;;;;5.45;1.70;;;11.00;99.90;;;;;;5020679;28;20420;-77
2023/12/11 02:58:56;;;;;;;5.03;1.80;;;11.00;99.90;;;;;;5030910;28;20102;-77
2023/12/11 03:01:23;;;;;;;5.43;2.28;;;10.90;99.90;;;;;;5023518;28;20064;-77
2023/12/11 03:03:50;;;;;;;6.85;1.70;;;10.90;99.90;;;;;;5022148;28;20046;-76
2023/12/11 03:06:20;;;;;;;4.53;1.65;;;11.00;99.90;;;;;;5022100;28;20053;-77
2023/12/11 03:08:47;;;;;;;5.75;1.65;;;10.90;99.90;;;;;;5022915;28;20131;-77
2023/12/11 03:11:14;;;;;;;5.38;2.00;;;10.90;99.90;;;;;;5024587;28;20049;-77
2023/12/11 03:13:41;;;;;;;5.22;1.60;;;10.90;99.90;;;;;;5033265;28;20044;-76
2023/12/11 03:16:12;;;;;;;7.63;2.53;;;10.90;99.90;;;;;;5043947;28;20342;-76
2023/12/11 03:18:41;;;;;;;5.38;2.08;;;10.80;99.90;;;;;;5034404;28;20049;-77
2023/12/11 03:21:09;;;;;;;6.70;1.88;;;10.80;99.90;;;;;;5022149;28;20486;-76
2023/12/11 03:23:37;;;;;;;6.45;1.73;;;10.80;99.90;;;;;;5016004;28;20641;-76
2023/12/11 03:26:04;;;;;;;7.40;1.80;;;10.70;99.90;;;;;;5008816;28;20136;-76
2023/12/11 03:28:30;;;;;;;2.97;1.10;;;10.70;99.90;;;;;;5030137;28;20048;-76
2023/12/11 03:30:57;;;;;;;6.78;2.22;;;10.70;99.90;;;;;;5009754;28;20056;-76
2023/12/11 03:33:24;;;;;;;7.00;1.98;;;10.70;99.90;;;;;;5028477;28;20083;-76
2023/12/11 03:35:51;;;;;;;7.03;1.77;;;10.70;99.90;;;;;;5022304;28;20104;-76
2023/12/11 03:38:18;;;;;;;6.63;1.90;;;10.60;99.90;;;;;;5032708;28;20049;-76
2023/12/11 03:40:45;;;;;;;5.38;1.60;;;10.60;99.90;;;;;;5010659;28;20537;-76
2023/12/11 03:43:12;;;;;;;7.40;2.13;;;10.60;99.90;;;;;;5024537;28;20049;-76
2023/12/11 03:45:39;;;;;;;5.68;1.80;;;10.50;99.90;;;;;;5024109;28;20064;-76
2023/12/11 03:48:05;;;;;;;4.20;1.55;;;10.50;99.90;;;;;;5031594;28;20040;-76
2023/12/11 03:50:32;;;;;;;5.88;2.17;;;10.50;99.90;;;;;;5014450;28;20124;-77
2023/12/11 03:53:00;;;;;;;5.95;1.77;;;10.50;99.90;;;;;;5008504;28;20123;-77
2023/12/11 03:55:27;;;;;;;6.70;1.85;;;10.50;99.90;;;;;;5024839;28;20379;-76
2023/12/11 03:57:53;;;;;;;6.50;2.60;;;10.50;99.90;;;;;;5026403;28;20061;-76
2023/12/11 04:00:21;;;;;;;6.03;2.10;;;10.40;99.90;;;;;;5030890;28;20137;-76
2023/12/11 04:02:48;;;;;;;5.72;1.95;;;10.50;99.90;;;;;;5024952;28;20064;-77
2023/12/11 04:05:15;;;;;;;2.53;1.60;;;10.40;99.90;;;;;;5024679;28;20159;-76
2023/12/11 04:07:42;;;;;;;4.55;1.40;;;10.40;99.90;;;;;;5011522;28;20102;-76
2023/12/11 04:10:09;;;;;;;8.27;2.85;;;10.40;99.90;;;;;;5029283;28;20065;-76
2023/12/11 04:12:36;;;;;;;7.30;2.45;;;10.40;99.90;;;;;;5024273;28;20143;-76
2023/12/11 04:15:03;;;;;;;6.75;1.70;;;10.40;99.90;;;;;;5022943;28;20129;-76
2023/12/11 04:17:30;;;;;;;4.85;1.90;;;10.40;99.90;;;;;;5018530;28;20119;-76
2023/12/11 04:19:58;;;;;;;4.28;1.50;;;10.40;99.90;;;;;;5035669;28;20482;-76
2023/12/11 04:22:25;;;;;;;5.90;1.85;;;10.40;99.90;;;;;;5044370;28;20053;-77
2023/12/11 04:24:52;;;;;;;5.47;1.80;;;10.40;99.90;;;;;;5007926;28;20129;-76
2023/12/11 04:27:19;;;;;;;4.47;1.55;;;10.40;99.90;;;;;;5005996;28;20506;-76
2023/12/11 04:29:46;;;;;;;8.45;2.00;;;10.40;99.90;;;;;;5010303;28;20045;-76
2023/12/11 04:32:13;;;;;;;5.40;1.40;;;10.40;99.90;;;;;;5008155;28;20057;-76
2023/12/11 04:34:40;;;;;;;4.95;1.58;;;10.40;99.90;;;;;;5025418;28;20518;-76
2023/12/11 04:37:07;;;;;;;5.78;1.98;;;10.30;99.90;;;;;;5025641;28;20056;-76
2023/12/11 04:39:34;;;;;;;5.45;2.05;;;10.30;99.90;;;;;;5048844;28;20188;-76
2023/12/11 04:42:01;;;;;;;6.97;1.85;;;10.30;99.90;;;;;;5026656;28;20720;-76
2023/12/11 04:44:28;;;;;;;3.22;1.20;;;10.30;99.90;;;;;;5008730;28;20049;-76
2023/12/11 04:46:55;;;;;;;4.10;1.42;;;10.30;99.90;;;;;;5038026;28;20064;-76
2023/12/11 04:49:22;;;;;;;4.13;1.40;;;10.30;99.90;;;;;;5026885;28;20076;-76
2023/12/11 04:51:50;;;;;;;6.25;1.80;;;10.40;99.90;;;;;;5020244;28;20041;-76
2023/12/11 04:54:17;;;;;;;4.43;1.85;;;10.40;99.90;;;;;;5009291;28;20045;-77
2023/12/11 04:56:44;;;;;;;4.43;1.63;;;10.40;99.90;;;;;;5008906;28;20055;-76
2023/12/11 04:59:10;;;;;;;5.45;1.95;;;10.50;99.90;;;;;;5009021;28;20419;-76
2023/12/11 05:01:37;;;;;;;4.57;1.45;;;10.50;99.90;;;;;;5028641;28;20052;-76
2023/12/11 05:04:04;;;;;;;6.05;1.58;;;10.50;99.90;;;;;;5024645;28;20140;-76
2023/12/11 05:06:31;;;;;;;6.55;1.60;;;10.60;99.90;;;;;;5024844;28;20143;-75
2023/12/11 05:08:58;;;;;;;4.30;1.38;;;10.60;99.90;;;;;;5025052;28;20145;-76
2023/12/11 05:11:25;;;;;;;5.18;1.50;;;10.70;99.90;;;;;;5026562;28;20056;-76
2023/12/11 05:13:52;;;;;;;3.75;1.60;;;10.70;99.90;;;;;;5016090;28;20642;-76
2023/12/11 05:16:19;;;;;;;6.28;1.70;;;10.80;99.90;;;;;;5018100;28;20076;-77
2023/12/11 05:18:47;;;;;;;3.70;1.10;;;10.80;99.90;;;;;;5031622;28;20399;-76
2023/12/11 05:21:14;;;;;;;5.00;1.60;;;10.80;99.90;;;;;;5008510;28;20048;-76
2023/12/11 05:23:41;;;;;;;3.13;1.33;;;10.90;99.90;;;;;;5028813;28;20105;-77
2023/12/11 05:26:08;;;;;;;3.70;1.25;;;10.90;99.90;;;;;;5009558;28;20111;-76
2023/12/11 05:28:35;;;;;;;5.32;1.50;;;10.90;99.90;;;;;;5035879;28;20532;-76
2023/12/11 05:31:02;;;;;;;5.93;1.38;;;10.90;99.90;;;;;;5043716;28;20118;-76
2023/12/11 05:33:29;;;;;;;4.07;1.73;;;10.90;99.90;;;;;;5035508;28;20140;-76
2023/12/11 05:35:56;;;;;;;4.93;1.50;;;10.90;99.90;;;;;;5023127;28;20041;-77
2023/12/11 05:38:23;;;;;;;4.10;1.10;;;11.00;99.90;;;;;;5019408;28;20062;-76
2023/12/11 05:40:50;;;;;;;4.78;1.38;;;11.00;99.90;;;;;;5031206;28;20072;-76
2023/12/11 05:43:17;;;;;;;4.30;1.52;;;11.00;99.90;;;;;;5007475;28;20160;-76
2023/12/11 05:45:44;;;;;;;5.38;1.48;;;11.10;99.90;;;;;;5036857;28;20041;-76
2023/12/11 05:48:11;;;;;;;4.72;1.73;;;11.10;99.90;;;;;;5014182;28;20301;-76
2023/12/11 05:50:38;;;;;;;3.80;1.88;;;11.10;99.90;;;;;;5028905;28;20053;-76
2023/12/11 05:53:08;;;;;;;2.35;1.10;;;11.10;99.90;;;;;;5021261;28;20103;-76
2023/12/11 05:55:36;;;;;;;4.22;1.30;;;11.10;99.90;;;;;;5035399;28;20436;-77
2023/12/11 05:58:03;;;;;;;3.60;1.65;;;11.10;99.90;;;;;;5040962;28;20520;-76
2023/12/11 06:00:30;;;;;;;3.25;1.20;;;11.10;99.90;;;;;;5031466;28;20147;-77
2023/12/11 06:02:57;;;;;;;2.35;1.20;;;11.10;99.90;;;;;;5026168;28;20049;-76
2023/12/11 06:05:24;;;;;;;3.90;1.45;;;11.10;99.90;;;;;;5031834;28;20049;-76
2023/12/11 06:07:51;;;;;;;4.88;1.48;;;11.10;99.90;;;;;;5033689;28;20115;-76
2023/12/11 06:10:18;;;;;;;6.20;1.42;;;11.10;99.90;;;;;;5014608;28;20048;-76
2023/12/11 06:12:45;;;;;;;2.88;1.08;;;11.00;99.90;;;;;;5016739;28;20078;-76
2023/12/11 06:15:12;;;;;;;1.58;0.80;;;11.10;99.90;;;;;;5031193;28;20045;-76
2023/12/11 06:17:38;;;;;;;2.78;1.10;;;11.10;99.90;;;;;;5015764;28;20064;-76
2023/12/11 06:20:06;;;;;;;3.90;1.67;;;11.00;99.90;;;;;;5030457;28;20048;-77
2023/12/11 06:22:33;;;;;;;4.75;1.23;;;11.00;99.90;;;;;;5035339;28;20057;-76
2023/12/11 06:24:59;;;;;;;4.75;1.58;;;11.00;99.90;;;;;;5027742;28;20606;-76
2023/12/11 06:27:27;;;;;;;2.58;0.85;;;11.00;99.90;;;;;;5021606;28;20049;-76
2023/12/11 06:29:55;;;;;;;3.80;0.88;;;10.90;99.90;;;;;;5030210;28;20052;-76
2023/12/11 06:32:22;;;;;;;3.25;1.10;;;10.90;99.90;;;;;;5033506;28;20064;-76
2023/12/11 06:34:49;;;;;;;1.75;0.70;;;10.90;99.90;;;;;;5022376;28;20060;-76
2023/12/11 06:37:16;;;;;;;3.58;1.05;;;10.80;99.90;;;;;;5020669;28;20137;-77
2023/12/11 06:39:44;;;;;;;2.45;0.63;;;10.70;99.90;;;;;;5036127;28;20053;-76
2023/12/11 06:42:10;;;;;;;2.63;0.90;;;10.70;99.90;;;;;;5035963;28;20081;-76
2023/12/11 06:44:38;;;;;;;5.32;1.40;;;10.60;99.90;;;;;;5023412;28;20107;-76
2023/12/11 06:47:05;;;;;;;2.72;1.02;;;10.60;99.90;;;;;;5025716;28;20057;-76
2023/12/11 06:49:32;;;;;;;2.50;1.08;;;10.50;99.90;;;;;;5021274;28;20041;-76
2023/12/11 06:51:59;;;;;;;2.75;0.80;;;10.40;99.90;;;;;;5034673;28;20053;-76
2023/12/11 06:54:27;;;;;;;2.47;0.77;;;10.40;99.90;;;;;;5007688;28;20046;-76
2023/12/11 06:56:54;;;;;;;1.33;0.85;;;10.30;99.90;;;;;;5038399;28;20045;-77
2023/12/11 06:59:27;;;;;;;1.98;0.85;;;10.30;99.90;;;;;;5029714;28;20503;-76
2023/12/11 07:01:54;;;;;;;3.63;1.05;;;10.20;99.90;;;;;;5013735;28;20052;-76
2023/12/11 07:04:21;;;;;;;4.80;1.10;;;10.20;99.90;;;;;;5030406;28;20613;-76
2023/12/11 07:06:48;;;;;;;2.50;0.80;;;10.10;99.90;;;;;;5035747;28;20068;-76
2023/12/11 07:09:16;;;;;;;2.03;0.77;;;10.10;99.90;;;;;;5033151;28;20045;-76
2023/12/11 07:11:43;;;;;;;3.00;0.80;;;10.10;99.90;;;;;;5027506;28;20438;-76
2023/12/11 07:14:10;;;;;;;2.08;0.68;;;10.00;99.90;;;;;;5024536;28;20061;-76
2023/12/11 07:16:37;;;;;;;1.17;0.77;;;10.00;99.90;;;;;;5023693;28;20529;-76
2023/12/11 07:19:04;;;;;;;0.95;0.47;;;9.90;99.90;;;;;;5007745;28;20358;-76
2023/12/11 07:21:32;;;;;;;1.52;0.63;;;9.90;99.90;;;;;;5034845;28;20053;-75
2023/12/11 07:23:59;;;;;;;2.22;0.57;;;9.90;99.90;;;;;;5025661;28;20048;-76
2023/12/11 07:26:25;;;;;;;0.95;0.50;;;9.80;99.90;;;;;;5017379;28;20909;-76
2023/12/11 07:28:52;;;;;;;1.42;0.80;;;9.80;99.90;;;;;;5013209;28;20485;-77
2023/12/11 07:31:20;;;;;;;1.35;0.55;;;9.70;99.90;;;;;;5028112;28;20133;-76
2023/12/11 07:33:47;;;;;;;2.10;0.80;;;9.70;99.90;;;;;;5009755;28;20138;-76
2023/12/11 07:36:15;;;;;;;1.77;0.70;;;9.60;99.90;;;;;;5034035;28;20052;-76
2023/12/11 07:38:42;;;;;;;1.63;0.65;;;9.60;99.90;;;;;;5014899;28;20111;-76
2023/12/11 07:41:09;;;;;;;2.88;1.00;;;9.60;99.90;;;;;;5025603;28;20049;-76
2023/12/11 07:43:36;;;;;;;2.08;0.70;;;9.50;99.90;;;;;;5009804;28;20053;-77
2023/12/11 07:46:04;;;;;;;3.67;1.00;;;9.50;99.90;;;;;;5022159;28;20053;-77
2023/12/11 07:48:31;;;;;;;1.60;0.68;;;9.50;99.90;;;;;;5035758;28;20352;-77
2023/12/11 07:50:58;;;;;;;2.45;1.08;;;9.60;99.90;;;;;;5024206;28;20051;-77
2023/12/11 07:53:25;;;;;;;2.35;0.70;;;9.60;99.90;;;;;;5025864;28;20045;-76
2023/12/11 07:55:52;;;;;;;2.33;0.80;;;9.70;99.90;;;;;;5034981;28;20122;-77
2023/12/11 07:58:19;;;;;;;2.17;0.80;;;9.70;99.90;;;;;;5027040;28;20111;-77
2023/12/11 08:00:46;;;;;;;1.33;0.45;;;9.80;99.90;;;;;;5029553;28;20129;-77
2023/12/11 08:03:13;;;;;;;2.33;1.02;;;9.80;99.90;;;;;;5007502;28;20237;-77
2023/12/11 08:05:40;;;;;;;3.67;0.77;;;9.90;99.90;;;;;;5026009;28;20049;-77
2023/12/11 08:08:07;;;;;;;2.20;0.63;;;9.90;99.90;;;;;;5030796;28;20041;-78
2023/12/11 08:10:34;;;;;;;1.58;0.63;;;10.00;99.90;;;;;;5009263;28;20068;-77
2023/12/11 08:13:01;;;;;;;1.90;0.70;;;10.00;99.90;;;;;;5025853;28;20138;-76
2023/12/11 08:15:28;;;;;;;1.92;0.70;;;10.00;99.90;;;;;;5022885;28;20055;-77
2023/12/11 08:17:55;;;;;;;2.47;0.70;;;10.00;99.90;;;;;;5026167;28;20045;-76
2023/12/11 08:20:22;;;;;;;1.92;0.60;;;10.00;99.90;;;;;;5029838;28;20045;-76
2023/12/11 08:22:50;;;;;;;2.35;1.08;;;10.10;99.90;;;;;;5032863;28;20064;-76
2023/12/11 08:25:17;;;;;;;1.17;0.55;;;10.10;99.90;;;;;;5038269;28;20044;-77
2023/12/11 08:27:45;;;;;;;2.08;0.70;;;10.10;99.90;;;;;;5023969;28;20053;-76
2023/12/11 08:30:12;;;;;;;1.38;0.68;;;10.10;99.90;;;;;;5022264;28;20209;-75
2023/12/11 08:32:39;;;;;;;1.25;0.60;;;10.10;99.90;;;;;;5010358;28;20057;-75
2023/12/11 08:35:07;;;;;;;2.72;0.70;;;10.10;99.90;;;;;;5025316;28;20102;-75
2023/12/11 08:37:35;;;;;;;1.50;0.68;;;10.20;99.90;;;;;;5003201;28;20041;-76
2023/12/11 08:40:04;;;;;;;2.25;0.80;;;10.20;99.90;;;;;;5023196;28;20053;-77
2023/12/11 08:42:32;;;;;;;2.10;0.68;;;10.20;99.90;;;;;;5020973;28;20060;-76
2023/12/11 08:45:07;;;;;;;0.98;0.70;;;10.20;99.90;;;;;;5021859;28;20314;-75
2023/12/11 08:47:34;;;;;;;1.73;0.73;;;10.20;99.90;;;;;;5012079;28;20076;-77
2023/12/11 08:50:06;;;;;;;2.45;0.60;;;10.20;99.90;;;;;;5026289;28;20045;-77
2023/12/11 08:52:34;;;;;;;1.73;0.75;;;10.20;99.90;;;;;;5039009;28;20500;-77
2023/12/11 08:55:00;;;;;;;1.73;0.60;;;10.10;99.90;;;;;;5026697;28;20061;-76
2023/12/11 08:57:29;;;;;;;1.00;0.60;;;10.10;99.90;;;;;;5031193;28;20082;-76
2023/12/11 08:59:57;;;;;;;2.75;0.70;;;10.00;99.90;;;;;;5013259;28;20456;-76
2023/12/11 09:02:24;;;;;;;1.48;0.70;;;10.00;99.90;;;;;;5032695;28;20415;-76
2023/12/11 09:04:51;;;;;;;1.67;0.70;;;10.00;99.90;;;;;;5030991;28;20045;-75
2023/12/11 09:07:18;;;;;;;1.20;0.70;;;9.90;99.90;;;;;;5023978;28;20060;-77
2023/12/11 09:09:45;;;;;;;2.30;0.77;;;10.00;99.90;;;;;;5007188;28;20132;-78
2023/12/11 09:12:12;;;;;;;2.45;0.90;;;9.90;99.90;;;;;;5010864;28;20053;-78
2023/12/11 09:14:56;;;;;;;1.42;0.70;;;10.00;99.90;;;;;;5030183;28;20158;-77
2023/12/11 09:17:23;;;;;;;3.05;1.00;;;10.00;99.90;;;;;;5036517;28;20052;-78
2023/12/11 09:19:50;;;;;;;2.20;0.80;;;10.00;99.90;;;;;;5006058;28;20115;-78
2023/12/11 09:22:22;;;;;;;2.53;0.75;;;10.00;99.90;;;;;;5034321;28;20049;-75
2023/12/11 09:24:50;;;;;;;1.85;0.70;;;10.10;99.90;;;;;;5020943;28;20475;-78
2023/12/11 09:27:17;;;;;;;2.78;0.77;;;10.10;99.90;;;;;;5004814;28;20057;-76
2023/12/11 09:29:48;;;;;;;2.83;0.88;;;10.20;99.90;;;;;;5001906;28;20074;-77
2023/12/11 09:32:15;;;;;;;1.75;0.75;;;10.30;99.90;;;;;;5022147;28;20053;-77
2023/12/11 09:34:42;;;;;;;1.77;0.82;;;10.30;99.90;;;;;;5022106;28;20052;-77
2023/12/11 09:37:09;;;;;;;3.03;0.80;;;10.40;99.90;;;;;;5023217;28;20084;-77
2023/12/11 09:39:38;;;;;;;3.60;1.00;;;10.50;99.90;;;;;;5020265;28;20088;-77
2023/12/11 09:42:05;;;;;;;3.45;0.98;;;10.50;99.90;;;;;;5008460;28;20123;-78
2023/12/11 09:44:32;;;;;;;1.98;0.80;;;10.50;99.90;;;;;;5020396;28;20671;-77
2023/12/11 09:47:08;;;;;;;2.67;0.90;;;10.60;99.90;;;;;;5006981;28;20561;-77
2023/12/11 09:49:35;;;;;;;1.58;0.60;;;10.60;99.90;;;;;;5018027;28;20052;-78
2023/12/11 09:52:03;;;;;;;1.90;0.65;;;10.70;99.90;;;;;;5003080;28;20064;-78
2023/12/11 09:54:31;;;;;;;3.80;0.73;;;10.70;99.90;;;;;;5006217;28;20467;-78
2023/12/11 09:56:58;;;;;;;1.50;0.88;;;10.80;99.90;;;;;;5022989;28;20049;-78
2023/12/11 09:59:27;;;;;;;2.55;0.80;;;10.80;99.90;;;;;;5002088;28;20076;-77
2023/12/11 10:01:54;;;;;;;0.80;0.50;;;10.80;99.90;;;;;;5023600;28;20285;-77
2023/12/11 10:04:21;;;;;;;0.98;0.35;;;10.90;99.90;;;;;;5015647;28;20041;-79
2023/12/11 10:06:52;;;;;;;1.52;0.70;;;10.90;99.90;;;;;;5020486;28;20095;-77
2023/12/11 10:09:29;;;;;;;2.60;0.73;;;11.00;99.90;;;;;;5014678;28;20522;-77
2023/12/11 10:12:00;;;;;;;1.15;0.60;;;11.00;99.90;;;;;;5014153;28;20121;-78
2023/12/11 10:14:30;;;;;;;0.88;0.50;;;11.00;99.90;;;;;;5000158;28;20047;-77
2023/12/11 10:16:57;;;;;;;3.78;1.38;;;11.10;99.90;;;;;;5002240;28;20156;-77
2023/12/11 10:19:31;;;;;;;2.28;1.50;;;11.10;99.90;;;;;;5002309;28;20057;-77
2023/12/11 10:22:00;;;;;;;5.05;1.15;;;11.10;99.90;;;;;;5029895;28;20057;-77
2023/12/11 10:24:28;;;;;;;1.13;0.70;;;11.10;99.90;;;;;;5023878;28;20144;-77
2023/12/11 10:26:56;;;;;;;2.00;1.02;;;11.20;99.90;;;;;;5006966;28;20063;-77
2023/12/11 10:29:24;;;;;;;1.45;0.70;;;11.20;99.90;;;;;;5004650;28;20060;-77
2023/12/11 10:31:51;;;;;;;1.27;0.68;;;11.10;99.90;;;;;;5005965;28;20132;-77
2023/12/11 10:34:18;;;;;;;2.88;1.02;;;11.20;99.90;;;;;;4992213;28;20104;-77
2023/12/11 10:36:50;;;;;;;1.55;0.60;;;11.20;99.90;;;;;;5008839;28;20077;-77
2023/12/11 10:39:19;;;;;;;2.42;1.00;;;11.20;99.90;;;;;;5018986;28;20127;-77
2023/12/11 10:41:48;;;;;;;2.53;1.00;;;11.20;99.90;;;;;;5005323;28;20041;-77
2023/12/11 10:44:25;;;;;;;1.60;0.82;;;11.20;99.90;;;;;;5021445;28;20061;-78
2023/12/11 10:47:12;;;;;;;2.17;0.93;;;11.20;99.90;;;;;;5011002;28;20133;-77
2023/12/11 10:49:40;;;;;;;2.33;1.13;;;11.20;99.90;;;;;;5024087;28;20136;-78
2023/12/11 10:52:07;;;;;;;2.30;0.70;;;11.20;99.90;;;;;;5008216;28;20185;-76
2023/12/11 10:54:38;;;;;;;1.80;0.75;;;11.20;99.90;;;;;;5007606;28;20528;-77
2023/12/11 10:57:07;;;;;;;3.03;0.90;;;11.20;99.90;;;;;;5022387;28;20216;-76
2023/12/11 10:59:35;;;;;;;1.40;0.60;;;11.10;99.90;;;;;;5001531;28;20575;-76
2023/12/11 11:02:02;;;;;;;5.38;0.98;;;11.10;99.90;;;;;;5022730;28;20084;-76
2023/12/11 11:04:35;;;;;;;1.52;0.70;;;11.00;99.90;;;;;;5021436;28;20056;-76
2023/12/11 11:07:27;;;;;;;1.75;0.70;;;11.00;99.90;;;;;;5017528;28;20135;-75
2023/12/11 11:10:16;;;;;;;3.35;0.63;;;11.10;99.90;;;;;;5018599;28;20049;-75
2023/12/11 11:12:47;;;;;;;2.78;0.90;;;11.10;99.90;;;;;;5012884;28;20151;-75
2023/12/11 11:15:25;;;;;;;1.48;0.60;;;11.10;99.90;;;;;;5003149;28;20170;-75
2023/12/11 11:18:05;;;;;;;2.15;0.85;;;11.20;99.90;;;;;;5022734;28;20421;-75
2023/12/11 11:20:33;;;;;;;4.00;1.25;;;11.20;99.90;;;;;;5022137;28;20137;-75
2023/12/11 11:23:20;;;;;;;2.33;0.88;;;11.20;99.90;;;;;;5021427;28;20518;-75
2023/12/11 11:25:54;;;;;;;2.00;0.88;;;11.10;99.90;;;;;;5018304;28;20046;-75
2023/12/11 11:28:38;;;;;;;1.88;0.95;;;11.10;99.90;;;;;;5019657;28;20387;-75
2023/12/11 11:31:08;;;;;;;1.35;0.55;;;11.20;99.90;;;;;;5005534;28;20056;-75
2023/12/11 11:33:52;;;;;;;2.03;0.70;;;11.30;99.90;;;;;;5007148;28;20099;-75
2023/12/11 11:36:21;;;;;;;0.35;0.30;;;11.30;99.90;;;;;;5023785;28;20042;-75
2023/12/11 11:38:55;;;;;;;0.82;0.50;;;11.40;99.90;;;;;;4997724;28;20064;-75
2023/12/11 11:41:27;;;;;;;0.93;0.52;;;11.40;99.90;;;;;;5016595;28;20053;-76
2023/12/11 11:43:59;;;;;;;1.92;0.70;;;11.40;99.90;;;;;;5018011;28;20045;-77
2023/12/11 11:46:27;;;;;;;1.30;0.60;;;11.40;99.90;;;;;;5001740;28;20042;-78
2023/12/11 11:48:54;;;;;;;2.88;0.90;;;11.40;99.90;;;;;;5007128;28;20383;-77
2023/12/11 11:51:21;;;;;;;2.75;0.90;;;11.40;99.90;;;;;;5021532;28;20596;-79
2023/12/11 11:53:52;;;;;;;1.70;0.57;;;11.50;99.90;;;;;;5005461;28;20414;-78
2023/12/11 11:56:18;;;;;;;2.60;1.00;;;11.50;99.90;;;;;;5020845;28;20374;-77
2023/12/11 11:58:45;;;;;;;1.30;0.90;;;11.50;99.90;;;;;;5002915;28;20054;-78
2023/12/11 12:01:13;;;;;;;2.08;0.75;;;11.50;99.90;;;;;;5017166;28;20057;-77
2023/12/11 12:03:43;;;;;;;2.13;0.85;;;11.50;99.90;;;;;;5018644;28;20057;-77
2023/12/11 12:06:10;;;;;;;3.15;0.93;;;11.50;99.90;;;;;;5015641;28;20456;-78
2023/12/11 12:08:42;;;;;;;1.63;1.02;;;11.50;99.90;;;;;;5002449;28;20061;-77
2023/12/11 12:11:11;;;;;;;2.38;1.00;;;11.60;99.90;;;;;;5017377;28;20529;-76
2023/12/11 12:13:37;;;;;;;2.22;1.02;;;11.50;99.90;;;;;;5003172;28;20109;-77
2023/12/11 12:16:05;;;;;;;2.20;0.88;;;11.60;99.90;;;;;;5017694;28;20049;-77
2023/12/11 12:18:32;;;;;;;1.90;0.82;;;11.50;99.90;;;;;;5000549;28;20056;-76
2023/12/11 12:21:07;;;;;;;2.00;1.25;;;11.60;99.90;;;;;;5018667;28;20139;-77
2023/12/11 12:23:34;;;;;;;3.13;0.95;;;11.60;99.90;;;;;;5002170;28;20069;-77
2023/12/11 12:26:02;;;;;;;1.33;0.60;;;11.60;99.90;;;;;;5019220;28;20136;-77
2023/12/11 12:28:29;;;;;;;2.78;0.77;;;11.60;99.90;;;;;;4985204;28;20578;-77
2023/12/11 12:30:56;;;;;;;2.42;1.00;;;11.50;99.90;;;;;;5002118;28;20099;-77
2023/12/11 12:33:23;;;;;;;2.17;0.88;;;11.60;99.90;;;;;;5001829;28;20041;-77
2023/12/11 12:35:50;;;;;;;3.65;0.88;;;11.60;99.90;;;;;;5001760;28;20136;-77
2023/12/11 12:38:17;;;;;;;2.70;0.85;;;11.60;99.90;;;;;;4999695;28;20049;-77
2023/12/11 12:40:44;;;;;;;3.50;1.00;;;11.60;99.90;;;;;;5019052;28;20053;-77
2023/12/11 12:43:14;;;;;;;1.90;0.80;;;11.60;99.90;;;;;;5017882;28;20046;-77
2023/12/11 12:45:42;;;;;;;1.10;0.80;;;11.70;99.90;;;;;;5000102;28;20053;-77
2023/12/11 12:48:09;;;;;;;1.75;0.73;;;11.70;99.90;;;;;;5002338;28;20119;-78
2023/12/11 12:50:38;;;;;;;1.13;0.60;;;11.70;99.90;;;;;;5016218;28;20045;-77
2023/12/11 12:53:07;;;;;;;1.75;0.95;;;11.80;99.90;;;;;;4996807;28;20050;-75